Accueil
METAR-TAF:

METAR-TAF

Aéroports :

Chehalis, Washington, États-Unis

latitude: 46-40-37N, longitude: 122-58-58W, altitude: 54 m

Observation

Le bulletin a été fait il y a 29 minutes, à 21:35 UTC
Vent 3 kt de ouest/sud-ouest
Température 6°C
Humidité 65%
Pression 1030 hPa
Visibilité: 16.1 km
Nuages épars à une hauteur de 6500 ft
Nuages épars à une hauteur de 7500 ft

METAR: KCLS 122135Z AUTO 25003KT 10SM SCT065 SCT075 06/M00 A3043 RMK AO2

Heure: 14:04 (22:04 UTC)


TAF: absent

Observations et prévisions météorologiques de plus de 4000 aéroports (messages METAR et TAF).

Les stations disponibles sont représentées par des disques jaunes et rouges sur la carte.

Passer la souris dessus pour voir le nom de la station.

Cliquer dessus pour voir les observations et prévisions météorologiques.

Pour changer de carte: cliquez sur les boutons verts avec une croix noire pour zoomer, sur le bouton vert avec un tiret pour effectuer un zoom arrière, ou sur les flèches vertes pour les cartes adjacentes.


METAR-TAF: